createdAt,value
2022-12-28T00:01:52.681Z,5.34
2022-12-28T00:04:20.585Z,5.30
2022-12-28T00:06:50.756Z,5.42
2022-12-28T00:09:18.642Z,5.51
2022-12-28T00:11:47.965Z,5.33
2022-12-28T00:14:15.909Z,5.30
2022-12-28T00:16:44.443Z,5.27
2022-12-28T00:19:15.383Z,5.09
2022-12-28T00:21:43.723Z,5.13
2022-12-28T00:24:18.907Z,5.09
2022-12-28T00:26:48.331Z,5.15
2022-12-28T00:29:16.588Z,4.98
2022-12-28T00:31:45.931Z,4.98
2022-12-28T00:34:14.283Z,4.98
2022-12-28T00:37:10.103Z,4.98
2022-12-28T00:39:30.563Z,4.99
2022-12-28T00:41:59.817Z,4.96
2022-12-28T00:44:27.730Z,4.96
2022-12-28T00:46:55.554Z,5.05
2022-12-28T00:49:23.363Z,4.99
2022-12-28T00:51:51.247Z,4.91
2022-12-28T00:54:19.263Z,4.98
2022-12-28T00:56:47.970Z,5.00
2022-12-28T00:59:17.498Z,5.07
2022-12-28T01:01:45.426Z,4.97
2022-12-28T01:04:15.136Z,5.02
2022-12-28T01:06:42.945Z,5.03
2022-12-28T01:09:10.880Z,4.99
2022-12-28T01:11:38.682Z,5.09
2022-12-28T01:14:06.465Z,5.04
2022-12-28T01:16:37.831Z,5.08
2022-12-28T01:19:08.061Z,4.99
2022-12-28T01:21:37.217Z,5.00
2022-12-28T01:24:07.769Z,5.01
2022-12-28T01:26:35.827Z,5.03
2022-12-28T01:29:04.250Z,5.05
2022-12-28T01:31:33.551Z,5.14
2022-12-28T01:34:03.418Z,5.19
2022-12-28T01:36:33.094Z,5.10
2022-12-28T01:39:03.654Z,5.20
2022-12-28T01:41:33.498Z,5.08
2022-12-28T01:44:47.352Z,5.07
2022-12-28T01:47:19.708Z,5.02
2022-12-28T01:49:55.367Z,5.18
2022-12-28T01:52:26.513Z,5.08
2022-12-28T01:54:59.428Z,5.14
2022-12-28T01:57:31.090Z,5.13
2022-12-28T02:00:03.479Z,5.20
2022-12-28T02:02:41.308Z,5.23
2022-12-28T02:05:10.830Z,5.11
2022-12-28T02:07:47.676Z,5.15
2022-12-28T02:10:40.863Z,5.21
2022-12-28T02:13:05.813Z,5.31
2022-12-28T02:15:33.795Z,5.27
2022-12-28T02:18:01.977Z,5.20
2022-12-28T02:20:42.253Z,5.25
2022-12-28T02:23:29.129Z,5.38
2022-12-28T02:26:31.622Z,5.28
2022-12-28T02:29:17.801Z,5.35
2022-12-28T02:31:53.784Z,5.36
2022-12-28T02:34:27.954Z,5.31
2022-12-28T02:37:02.519Z,5.30
2022-12-28T02:39:39.420Z,5.40
2022-12-28T02:42:10.829Z,5.46
2022-12-28T02:44:57.833Z,5.46
2022-12-28T02:47:42.950Z,5.64
2022-12-28T02:50:14.911Z,5.65
2022-12-28T02:53:21.359Z,5.64
2022-12-28T02:56:08.511Z,5.76
2022-12-28T02:58:55.591Z,5.77
2022-12-28T03:01:43.649Z,5.74
2022-12-28T03:04:25.186Z,5.63
2022-12-28T03:07:18.895Z,5.85
2022-12-28T03:09:51.661Z,5.81
2022-12-28T03:12:26.529Z,5.89
2022-12-28T03:15:00.093Z,5.98
2022-12-28T03:17:50.813Z,6.05
2022-12-28T03:20:40.951Z,5.91
2022-12-28T03:23:30.172Z,6.02
2022-12-28T03:26:19.384Z,5.91
2022-12-28T03:29:09.502Z,5.88
2022-12-28T03:31:42.534Z,5.95
2022-12-28T03:34:14.907Z,5.60
2022-12-28T03:37:04.770Z,5.87
2022-12-28T03:39:37.471Z,5.98
2022-12-28T03:42:32.758Z,5.73
2022-12-28T03:45:07.510Z,5.77
2022-12-28T03:47:38.835Z,5.57
2022-12-28T03:50:08.700Z,5.84
2022-12-28T03:52:36.595Z,5.66
2022-12-28T03:55:06.701Z,5.56
2022-12-28T03:57:34.506Z,5.59
2022-12-28T04:00:06.229Z,5.64
2022-12-28T04:02:43.948Z,5.65
2022-12-28T04:05:13.940Z,5.76
2022-12-28T04:07:42.654Z,5.64
2022-12-28T04:10:10.832Z,5.88
2022-12-28T04:12:38.676Z,6.01
2022-12-28T04:15:22.180Z,5.90
2022-12-28T04:17:50.027Z,5.72
2022-12-28T04:20:19.772Z,5.82
2022-12-28T04:22:47.871Z,5.69
2022-12-28T04:25:15.838Z,5.85
2022-12-28T04:27:44.751Z,5.73
2022-12-28T04:30:32.324Z,5.76
2022-12-28T04:33:00.110Z,5.84
2022-12-28T04:35:30.178Z,5.86
2022-12-28T04:37:58.150Z,5.97
2022-12-28T04:40:25.907Z,5.93
2022-12-28T04:42:53.719Z,6.02
2022-12-28T04:45:22.294Z,6.20
2022-12-28T04:47:50.309Z,5.91
2022-12-28T04:50:18.227Z,5.91
2022-12-28T04:52:47.397Z,5.88
2022-12-28T04:55:32.761Z,6.02
2022-12-28T04:58:01.514Z,6.20
2022-12-28T05:00:29.417Z,6.16
2022-12-28T05:03:00.473Z,6.10
2022-12-28T05:05:28.608Z,6.23
2022-12-28T05:08:01.853Z,6.14
2022-12-28T05:10:30.263Z,6.24
2022-12-28T05:12:58.343Z,6.25
2022-12-28T05:15:26.190Z,6.31
2022-12-28T05:17:55.663Z,6.37
2022-12-28T05:20:23.423Z,6.38
2022-12-28T05:22:51.278Z,6.28
2022-12-28T05:25:20.420Z,6.42
2022-12-28T05:27:48.207Z,6.28
2022-12-28T05:30:16.004Z,6.49
2022-12-28T05:32:43.886Z,6.59
2022-12-28T05:35:11.746Z,6.52
2022-12-28T05:37:39.599Z,6.60
2022-12-28T05:40:08.680Z,6.38
2022-12-28T05:42:37.791Z,6.46
2022-12-28T05:45:06.323Z,6.53
2022-12-28T05:47:34.316Z,6.67
2022-12-28T05:50:02.153Z,6.59
2022-12-28T05:52:30.191Z,6.43
2022-12-28T05:54:58.003Z,6.49
2022-12-28T05:57:25.762Z,6.42
2022-12-28T05:59:54.962Z,6.42
2022-12-28T06:02:25.688Z,6.21
2022-12-28T06:04:53.583Z,6.43
2022-12-28T06:07:23.916Z,6.39
2022-12-28T06:09:51.851Z,6.35
2022-12-28T06:12:19.810Z,6.42
2022-12-28T06:14:47.740Z,6.21
2022-12-28T06:17:16.991Z,6.47
2022-12-28T06:19:44.753Z,6.47
2022-12-28T06:22:12.551Z,6.29
2022-12-28T06:24:40.317Z,6.50
2022-12-28T06:27:08.209Z,6.26
2022-12-28T06:29:36.089Z,6.36
2022-12-28T06:32:03.955Z,6.45
2022-12-28T06:34:33.232Z,6.26
2022-12-28T06:37:01.006Z,6.11
2022-12-28T06:39:29.131Z,6.25
2022-12-28T06:41:56.883Z,6.31
2022-12-28T06:44:24.649Z,6.12
2022-12-28T06:46:52.496Z,6.31
2022-12-28T06:49:20.409Z,6.35
2022-12-28T06:51:49.610Z,6.31
2022-12-28T06:54:17.373Z,6.44
2022-12-28T06:56:45.328Z,6.26
2022-12-28T06:59:13.203Z,6.26
2022-12-28T07:01:44.637Z,6.20
2022-12-28T07:04:13.342Z,6.21
2022-12-28T07:06:43.264Z,6.35
2022-12-28T07:09:15.315Z,6.37
2022-12-28T07:11:43.605Z,6.29
2022-12-28T07:14:11.827Z,6.35
2022-12-28T07:19:06.389Z,6.38
2022-12-28T07:21:35.874Z,6.35
2022-12-28T07:24:04.588Z,6.40
2022-12-28T07:26:36.011Z,6.42
2022-12-28T07:29:06.118Z,6.46
2022-12-28T07:31:40.004Z,6.46
2022-12-28T07:34:12.717Z,6.50
2022-12-28T07:36:40.545Z,6.54
2022-12-28T07:39:09.069Z,6.56
2022-12-28T07:41:38.370Z,6.57
2022-12-28T07:44:07.594Z,6.59
2022-12-28T07:46:37.279Z,6.55
2022-12-28T07:49:05.408Z,6.61
2022-12-28T07:51:36.195Z,6.54
2022-12-28T07:54:05.390Z,6.57
2022-12-28T07:59:05.339Z,6.59
2022-12-28T08:01:35.804Z,6.72
2022-12-28T08:04:07.055Z,6.87
2022-12-28T08:06:37.333Z,6.65
2022-12-28T08:09:06.536Z,6.65
2022-12-28T08:11:36.859Z,6.82
2022-12-28T08:14:07.167Z,6.83
2022-12-28T08:16:37.934Z,6.75
2022-12-28T08:19:06.188Z,6.76
2022-12-28T08:21:36.597Z,6.73
2022-12-28T08:24:06.110Z,6.81
2022-12-28T08:26:36.778Z,6.84
2022-12-28T08:29:08.153Z,7.01
2022-12-28T08:31:38.053Z,6.88
2022-12-28T08:34:07.915Z,6.75
2022-12-28T08:36:36.398Z,6.84
2022-12-28T08:39:04.351Z,6.88
2022-12-28T08:41:32.541Z,6.92
2022-12-28T08:44:00.812Z,6.79
2022-12-28T08:46:31.639Z,6.74
2022-12-28T08:49:01.092Z,6.92
2022-12-28T08:51:32.376Z,6.95
2022-12-28T08:54:00.385Z,7.01
2022-12-28T08:56:30.401Z,7.03
2022-12-28T08:58:59.397Z,7.08
2022-12-28T09:01:29.604Z,7.07
2022-12-28T09:04:00.758Z,7.09
2022-12-28T09:06:31.847Z,7.06
2022-12-28T09:09:08.291Z,6.97
2022-12-28T09:11:37.080Z,7.14
2022-12-28T09:14:06.431Z,7.29
2022-12-28T09:16:34.338Z,7.32
2022-12-28T09:19:06.838Z,7.35
2022-12-28T09:21:38.866Z,7.32
2022-12-28T09:24:08.142Z,7.29
2022-12-28T09:26:37.973Z,7.30
2022-12-28T09:29:08.765Z,7.37
2022-12-28T09:31:37.561Z,7.28
2022-12-28T09:36:55.810Z,7.50
2022-12-28T09:39:24.971Z,7.55
2022-12-28T09:41:56.857Z,7.65
2022-12-28T09:45:01.229Z,7.70
2022-12-28T09:47:43.232Z,7.61
2022-12-28T09:50:47.831Z,7.58
2022-12-28T09:53:30.540Z,7.71
2022-12-28T09:56:04.639Z,7.86
2022-12-28T09:58:35.096Z,7.95
2022-12-28T10:01:05.305Z,7.83
2022-12-28T10:03:38.128Z,7.76
2022-12-28T10:06:13.604Z,7.86
2022-12-28T10:08:45.902Z,7.81
2022-12-28T10:11:18.805Z,8.03
2022-12-28T10:13:55.541Z,7.98
2022-12-28T10:16:26.600Z,8.04
2022-12-28T10:18:55.155Z,8.17
2022-12-28T10:21:32.383Z,8.15
2022-12-28T10:24:30.445Z,8.09
2022-12-28T10:26:50.032Z,8.10
2022-12-28T10:29:21.042Z,8.40
2022-12-28T10:31:59.613Z,8.31
2022-12-28T10:34:33.369Z,8.46
2022-12-28T10:37:14.750Z,8.43
2022-12-28T10:39:51.697Z,8.63
2022-12-28T10:42:27.268Z,8.57
2022-12-28T10:45:03.053Z,8.57
2022-12-28T10:47:36.036Z,8.65
2022-12-28T10:50:35.927Z,8.53
2022-12-28T10:53:00.845Z,8.55
2022-12-28T10:55:33.196Z,8.37
2022-12-28T10:58:29.195Z,8.43
2022-12-28T11:01:03.864Z,8.59
2022-12-28T11:03:35.292Z,8.47
2022-12-28T11:06:16.133Z,8.32
2022-12-28T11:09:01.698Z,8.34
2022-12-28T11:11:30.176Z,8.12
2022-12-28T11:14:03.533Z,8.23
2022-12-28T11:16:42.493Z,8.37
2022-12-28T11:19:12.762Z,8.23
2022-12-28T11:21:42.101Z,8.29
2022-12-28T11:24:19.656Z,8.36
2022-12-28T11:26:51.018Z,8.43
2022-12-28T11:29:21.041Z,8.51
2022-12-28T11:32:01.472Z,8.45
2022-12-28T11:34:40.212Z,8.47
2022-12-28T11:37:14.495Z,8.23
2022-12-28T11:39:50.548Z,8.14
2022-12-28T11:42:52.291Z,8.22
2022-12-28T11:45:55.042Z,8.22
2022-12-28T11:49:00.824Z,8.33
2022-12-28T11:51:31.013Z,8.07
2022-12-28T11:54:01.366Z,8.21
2022-12-28T11:57:00.461Z,8.28
2022-12-28T11:59:30.241Z,8.29
2022-12-28T12:02:01.090Z,8.22
2022-12-28T12:04:51.964Z,8.60
2022-12-28T12:07:31.075Z,8.56
2022-12-28T12:10:41.871Z,8.53
2022-12-28T12:13:51.119Z,8.44
2022-12-28T12:16:28.137Z,8.50
2022-12-28T12:18:59.198Z,8.47
2022-12-28T12:21:33.667Z,8.67
2022-12-28T12:24:18.392Z,8.60
2022-12-28T12:26:51.919Z,8.79
2022-12-28T12:29:24.939Z,8.45
2022-12-28T12:32:03.427Z,8.58
2022-12-28T12:34:43.076Z,8.43
2022-12-28T12:37:38.640Z,8.55
2022-12-28T12:40:33.571Z,8.41
2022-12-28T12:43:29.215Z,8.49
2022-12-28T12:46:14.979Z,8.54
2022-12-28T12:49:04.354Z,8.33
2022-12-28T12:51:38.433Z,8.26
2022-12-28T12:54:21.455Z,8.48
2022-12-28T12:56:55.241Z,8.37
2022-12-28T12:59:41.126Z,8.37
2022-12-28T13:02:35.249Z,8.41
2022-12-28T13:05:06.758Z,8.32
2022-12-28T13:07:35.546Z,8.40
2022-12-28T13:10:06.431Z,8.57
2022-12-28T13:12:34.585Z,8.55
2022-12-28T13:15:12.308Z,8.68
2022-12-28T13:17:41.057Z,8.60
2022-12-28T13:20:12.235Z,8.65
2022-12-28T13:22:43.750Z,8.82
2022-12-28T13:25:25.093Z,8.74
2022-12-28T13:27:53.514Z,8.81
2022-12-28T13:30:23.644Z,8.83
2022-12-28T13:32:53.737Z,8.83
2022-12-28T13:35:25.120Z,8.78
2022-12-28T13:38:04.538Z,8.80
2022-12-28T13:40:33.976Z,8.89
2022-12-28T13:43:23.002Z,8.95
2022-12-28T13:45:54.938Z,8.94
2022-12-28T13:48:24.633Z,9.02
2022-12-28T13:50:54.836Z,9.02
2022-12-28T13:53:27.170Z,9.01
2022-12-28T13:55:58.725Z,9.05
2022-12-28T13:58:31.657Z,8.95
2022-12-28T14:01:02.622Z,9.08
2022-12-28T14:03:37.517Z,8.84
2022-12-28T14:06:11.186Z,8.91
2022-12-28T14:08:40.659Z,8.84
2022-12-28T14:11:09.072Z,9.01
2022-12-28T14:13:38.026Z,8.84
2022-12-28T14:16:07.634Z,9.08
2022-12-28T14:18:36.272Z,9.12
2022-12-28T14:21:06.481Z,9.01
2022-12-28T14:23:37.953Z,9.06
2022-12-28T14:26:08.331Z,8.98
2022-12-28T14:28:41.066Z,9.23
2022-12-28T14:31:12.757Z,8.95
2022-12-28T14:33:52.070Z,9.00
2022-12-28T14:36:22.862Z,8.97
2022-12-28T14:38:56.312Z,9.08
2022-12-28T14:41:31.777Z,9.22
2022-12-28T14:44:03.424Z,9.11
2022-12-28T14:46:34.391Z,9.21
2022-12-28T14:49:31.078Z,9.18
2022-12-28T14:52:32.515Z,9.41
2022-12-28T14:55:20.543Z,9.40
2022-12-28T14:57:50.260Z,9.39
2022-12-28T15:00:28.140Z,9.32
2022-12-28T15:02:57.670Z,9.31
2022-12-28T15:05:41.770Z,9.48
2022-12-28T15:08:11.028Z,9.44
2022-12-28T15:10:44.934Z,9.46
2022-12-28T15:13:12.878Z,9.30
2022-12-28T15:15:41.491Z,9.39
2022-12-28T15:18:09.738Z,9.50
2022-12-28T15:20:38.961Z,9.61
2022-12-28T15:23:07.062Z,9.63
2022-12-28T15:25:36.084Z,9.64
2022-12-28T15:28:06.020Z,9.71
2022-12-28T15:30:34.108Z,9.66
2022-12-28T15:33:02.118Z,9.62
2022-12-28T15:35:30.280Z,9.51
2022-12-28T15:37:58.309Z,9.65
2022-12-28T15:40:26.660Z,9.54
2022-12-28T15:42:55.012Z,9.53
2022-12-28T15:45:25.671Z,9.50
2022-12-28T15:47:55.663Z,9.61
2022-12-28T15:50:24.264Z,9.52
2022-12-28T15:52:52.994Z,9.50
2022-12-28T15:55:21.438Z,9.48
2022-12-28T15:57:49.987Z,9.39
2022-12-28T16:00:20.603Z,9.52
2022-12-28T16:02:50.520Z,9.41
2022-12-28T16:05:19.602Z,9.35
2022-12-28T16:07:48.001Z,9.56
2022-12-28T16:10:20.689Z,9.66
2022-12-28T16:12:49.059Z,9.62
2022-12-28T16:15:17.700Z,9.74
2022-12-28T16:17:55.055Z,9.43
2022-12-28T16:20:26.480Z,9.55
2022-12-28T16:22:54.947Z,9.53
2022-12-28T16:25:22.928Z,9.66
2022-12-28T16:27:50.908Z,9.37
2022-12-28T16:30:19.033Z,9.55
2022-12-28T16:32:48.001Z,9.66
2022-12-28T16:35:16.157Z,9.72
2022-12-28T16:37:45.408Z,9.66
2022-12-28T16:40:13.842Z,9.57
2022-12-28T16:42:45.750Z,9.28
2022-12-28T16:45:14.000Z,9.32
2022-12-28T16:47:44.935Z,9.60
2022-12-28T16:50:13.844Z,9.57
2022-12-28T16:52:42.037Z,9.61
2022-12-28T16:55:11.626Z,9.58
2022-12-28T16:57:39.585Z,9.65
2022-12-28T17:00:09.126Z,9.78
2022-12-28T17:02:37.380Z,9.60
2022-12-28T17:05:05.888Z,9.48
2022-12-28T17:07:33.735Z,9.53
2022-12-28T17:10:01.873Z,9.38
2022-12-28T17:12:31.468Z,9.37
2022-12-28T17:15:04.852Z,9.30
2022-12-28T17:17:33.497Z,9.41
2022-12-28T17:20:01.896Z,9.47
2022-12-28T17:22:30.993Z,9.43
2022-12-28T17:24:59.056Z,9.37
2022-12-28T17:27:27.303Z,9.32
2022-12-28T17:29:56.765Z,9.43
2022-12-28T17:32:24.776Z,9.35
2022-12-28T17:34:53.225Z,9.38
2022-12-28T17:37:21.590Z,9.38
2022-12-28T17:39:49.687Z,9.38
2022-12-28T17:42:17.731Z,9.36
2022-12-28T17:44:48.388Z,9.31
2022-12-28T17:47:17.711Z,9.37
2022-12-28T17:49:45.680Z,9.44
2022-12-28T17:52:20.046Z,9.40
2022-12-28T17:54:47.989Z,9.42
2022-12-28T17:57:16.269Z,9.36
2022-12-28T17:59:44.317Z,9.39
2022-12-28T18:02:13.091Z,9.37
2022-12-28T18:04:42.732Z,9.48
2022-12-28T18:07:10.777Z,9.43
2022-12-28T18:09:38.790Z,9.41
2022-12-28T18:12:06.823Z,9.51
2022-12-28T18:14:34.830Z,9.42
2022-12-28T18:17:03.941Z,9.48
2022-12-28T18:19:32.096Z,9.43
2022-12-28T18:22:01.420Z,9.28
2022-12-28T18:24:29.383Z,9.45
2022-12-28T18:26:57.327Z,9.58
2022-12-28T18:29:26.383Z,9.64
2022-12-28T18:31:54.701Z,9.62
2022-12-28T18:34:23.054Z,9.57
2022-12-28T18:36:51.027Z,9.45
2022-12-28T18:39:20.965Z,9.41
2022-12-28T18:41:51.034Z,9.41
2022-12-28T18:44:22.192Z,9.39
2022-12-28T18:46:50.483Z,9.32
2022-12-28T18:49:18.778Z,9.33
2022-12-28T18:51:46.953Z,9.35
2022-12-28T18:54:14.923Z,9.38
2022-12-28T18:56:44.567Z,9.26
2022-12-28T18:59:14.173Z,9.32
2022-12-28T19:04:32.467Z,9.34
2022-12-28T19:07:03.109Z,9.26
2022-12-28T19:09:31.257Z,9.31
2022-12-28T19:12:01.182Z,9.17
2022-12-28T19:14:29.608Z,9.47
2022-12-28T19:16:58.029Z,9.49
2022-12-28T19:19:26.643Z,9.38
2022-12-28T19:21:59.127Z,9.29
2022-12-28T19:24:27.898Z,9.26
2022-12-28T19:26:56.516Z,9.23
2022-12-28T19:29:26.399Z,9.23
2022-12-28T19:31:55.245Z,9.16
2022-12-28T19:34:23.526Z,9.09
2022-12-28T19:36:52.080Z,9.10
2022-12-28T19:39:20.550Z,9.11
2022-12-28T19:41:48.684Z,9.22
2022-12-28T19:44:23.036Z,9.08
2022-12-28T19:46:54.336Z,9.18
2022-12-28T19:49:22.524Z,9.25
2022-12-28T19:51:50.649Z,9.15
2022-12-28T19:54:18.652Z,9.19
2022-12-28T19:56:47.004Z,9.15
2022-12-28T19:59:15.427Z,9.61
2022-12-28T20:01:43.739Z,9.39
2022-12-28T20:04:14.688Z,9.23
2022-12-28T20:06:44.517Z,9.36
2022-12-28T20:09:14.053Z,9.36
2022-12-28T20:11:43.045Z,9.30
2022-12-28T20:14:13.036Z,9.26
2022-12-28T20:16:42.771Z,9.26
2022-12-28T20:19:13.703Z,9.47
2022-12-28T20:21:42.621Z,9.40
2022-12-28T20:24:13.094Z,9.59
2022-12-28T20:26:41.590Z,9.54
2022-12-28T20:29:09.910Z,9.34
2022-12-28T20:31:38.799Z,9.24
2022-12-28T20:34:07.591Z,9.09
2022-12-28T20:36:37.818Z,9.17
2022-12-28T20:39:06.327Z,9.34
2022-12-28T20:41:52.702Z,9.24
2022-12-28T20:44:26.631Z,9.33
2022-12-28T20:46:55.726Z,9.38
2022-12-28T20:49:25.436Z,9.44
2022-12-28T20:51:56.004Z,9.31
2022-12-28T20:54:25.572Z,9.20
2022-12-28T20:56:55.839Z,9.17
2022-12-28T20:59:26.354Z,9.05
2022-12-28T21:01:55.448Z,9.05
2022-12-28T21:04:25.848Z,9.18
2022-12-28T21:06:56.110Z,9.13
2022-12-28T21:09:24.346Z,9.09
2022-12-28T21:11:52.646Z,8.91
2022-12-28T21:14:20.822Z,9.09
2022-12-28T21:16:49.485Z,8.83
2022-12-28T21:19:17.909Z,9.09
2022-12-28T21:21:48.405Z,8.90
2022-12-28T21:24:18.432Z,8.76
2022-12-28T21:26:46.788Z,8.79
2022-12-28T21:29:17.863Z,8.87
2022-12-28T21:31:51.885Z,8.91
2022-12-28T21:34:19.944Z,8.99
2022-12-28T21:36:48.030Z,8.86
2022-12-28T21:39:17.433Z,8.75
2022-12-28T21:41:51.785Z,9.17
2022-12-28T21:44:22.264Z,9.11
2022-12-28T21:46:52.030Z,9.03
2022-12-28T21:49:20.797Z,8.94
2022-12-28T21:51:48.791Z,8.99
2022-12-28T21:54:19.461Z,8.94
2022-12-28T21:56:51.257Z,8.91
2022-12-28T21:59:19.419Z,8.95
2022-12-28T22:02:04.930Z,8.96
2022-12-28T22:04:50.449Z,9.06
2022-12-28T22:07:21.159Z,9.13
2022-12-28T22:10:08.091Z,8.99
2022-12-28T22:12:37.312Z,9.01
2022-12-28T22:15:26.896Z,8.94
2022-12-28T22:17:56.408Z,9.14
2022-12-28T22:20:25.404Z,9.13
2022-12-28T22:22:56.133Z,9.04
2022-12-28T22:25:26.777Z,9.22
2022-12-28T22:27:55.251Z,9.05
2022-12-28T22:30:23.809Z,9.05
2022-12-28T22:32:53.131Z,9.24
2022-12-28T22:35:22.149Z,9.24
2022-12-28T22:37:51.083Z,9.09
2022-12-28T22:40:19.699Z,9.29
2022-12-28T22:42:51.290Z,9.03
2022-12-28T22:45:21.073Z,9.14
2022-12-28T22:47:50.250Z,9.15
2022-12-28T22:50:19.951Z,9.08
2022-12-28T22:52:48.301Z,9.20
2022-12-28T22:55:16.642Z,9.18
2022-12-28T22:57:45.271Z,9.15
2022-12-28T23:00:16.175Z,9.21
2022-12-28T23:02:45.128Z,9.39
2022-12-28T23:05:13.505Z,9.17
2022-12-28T23:07:41.724Z,9.30
2022-12-28T23:10:11.206Z,9.16
2022-12-28T23:12:39.226Z,9.19
2022-12-28T23:15:16.531Z,9.15
2022-12-28T23:17:46.577Z,9.04
2022-12-28T23:20:32.200Z,9.22
2022-12-28T23:23:17.633Z,9.51
2022-12-28T23:26:03.134Z,9.46
2022-12-28T23:28:31.087Z,9.61
2022-12-28T23:30:59.077Z,9.61
2022-12-28T23:33:28.697Z,9.65
2022-12-28T23:35:56.635Z,9.71
2022-12-28T23:38:24.504Z,10.08
2022-12-28T23:41:12.553Z,9.63
2022-12-28T23:43:40.471Z,9.51
2022-12-28T23:46:08.403Z,9.55
2022-12-28T23:48:37.877Z,9.69
2022-12-28T23:51:08.101Z,9.86
2022-12-28T23:53:36.377Z,9.62
2022-12-28T23:56:04.198Z,9.76
2022-12-28T23:58:32.126Z,9.72
